Time;durP1;ratioP1;P1;durP2;ratioP2;P2;SDS_P1;SDS_P2;PMS_P1;PMS_P2;Temp;Humidity;BMP_temperature;BMP_pressure;BME280_temperature;BME280_humidity;BME280_pressure;Samples;Min_cycle;Max_cycle;Signal;HPM_P1;HPM_P2
2021/11/30 00:01:55;;;;;;;1.70;1.60;;;22.20;32.70;;;;;;5042821;28;20143;-63
2021/11/30 00:04:28;;;;;;;2.58;1.70;;;22.20;32.70;;;;;;5063954;28;20051;-63
2021/11/30 00:06:57;;;;;;;1.45;1.35;;;22.20;32.70;;;;;;5066028;28;20044;-63
2021/11/30 00:12:21;;;;;;;1.73;1.63;;;22.20;32.70;;;;;;5051938;28;20056;-63
2021/11/30 00:14:51;;;;;;;1.70;1.50;;;22.20;32.70;;;;;;5064625;28;20079;-63
2021/11/30 00:17:19;;;;;;;2.08;1.80;;;22.20;32.70;;;;;;5052106;28;20079;-63
2021/11/30 00:19:49;;;;;;;4.18;2.03;;;22.20;32.70;;;;;;5045377;28;20456;-63
2021/11/30 00:22:19;;;;;;;1.63;1.52;;;22.10;32.60;;;;;;5047501;28;20497;-63
2021/11/30 00:24:47;;;;;;;1.83;1.55;;;22.20;32.70;;;;;;5045641;28;20106;-60
2021/11/30 00:27:15;;;;;;;1.80;1.65;;;22.20;33.20;;;;;;5044661;28;20049;-63
2021/11/30 00:29:43;;;;;;;2.17;1.90;;;22.10;32.60;;;;;;5044305;28;20785;-63
2021/11/30 00:32:11;;;;;;;2.28;1.70;;;22.10;32.60;;;;;;5043713;28;20447;-62
2021/11/30 00:34:38;;;;;;;1.77;1.67;;;22.10;32.60;;;;;;5063678;28;20134;-61
2021/11/30 00:37:06;;;;;;;1.67;1.58;;;22.10;32.60;;;;;;5065335;28;20112;-63
2021/11/30 00:39:33;;;;;;;3.08;1.70;;;22.10;32.70;;;;;;5065256;28;20135;-63
2021/11/30 00:42:01;;;;;;;2.20;1.70;;;22.10;32.70;;;;;;5054322;28;20048;-61
2021/11/30 00:44:29;;;;;;;2.10;1.90;;;22.10;32.60;;;;;;5044011;28;20501;-61
2021/11/30 00:46:57;;;;;;;2.80;1.80;;;22.10;32.60;;;;;;5045319;28;20592;-61
2021/11/30 00:49:26;;;;;;;1.40;1.30;;;22.10;32.60;;;;;;5044699;28;20095;-61
2021/11/30 00:51:56;;;;;;;1.73;1.30;;;22.10;32.60;;;;;;5040061;28;20052;-63
2021/11/30 00:54:24;;;;;;;2.28;2.08;;;22.10;32.60;;;;;;5061326;28;20075;-61
2021/11/30 00:56:55;;;;;;;1.95;1.67;;;22.10;32.60;;;;;;5065521;28;20121;-63
2021/11/30 00:59:27;;;;;;;1.63;1.50;;;22.10;32.60;;;;;;5064947;28;20052;-61
2021/11/30 01:01:56;;;;;;;1.83;1.73;;;22.10;32.60;;;;;;5054458;28;20048;-62
2021/11/30 01:04:24;;;;;;;2.27;1.70;;;22.10;32.60;;;;;;5044664;28;20052;-61
2021/11/30 01:06:52;;;;;;;2.25;1.83;;;22.10;32.60;;;;;;5044714;28;20305;-61
2021/11/30 01:09:19;;;;;;;1.90;1.80;;;22.10;32.60;;;;;;5044127;28;20619;-61
2021/11/30 01:11:47;;;;;;;1.67;1.58;;;22.10;32.60;;;;;;5040813;28;20098;-61
2021/11/30 01:14:14;;;;;;;1.73;1.63;;;22.10;32.60;;;;;;5045246;28;20074;-61
2021/11/30 01:16:42;;;;;;;3.10;1.80;;;22.10;32.60;;;;;;5044373;28;20059;-61
2021/11/30 01:19:09;;;;;;;1.35;1.25;;;22.10;32.60;;;;;;5043721;28;20135;-61
2021/11/30 01:21:37;;;;;;;1.90;1.80;;;22.10;32.60;;;;;;5038990;28;20147;-61
2021/11/30 01:24:05;;;;;;;1.90;1.48;;;22.10;32.60;;;;;;5041646;28;20084;-61
2021/11/30 01:26:33;;;;;;;1.65;1.52;;;22.10;32.60;;;;;;5044288;28;20090;-61
2021/11/30 01:29:02;;;;;;;1.63;1.50;;;22.10;32.60;;;;;;5044684;28;20060;-63
2021/11/30 01:31:29;;;;;;;1.95;1.77;;;22.10;32.60;;;;;;5041403;28;20041;-63
2021/11/30 01:33:57;;;;;;;1.85;1.63;;;22.10;32.60;;;;;;5039611;28;20151;-63
2021/11/30 01:36:24;;;;;;;1.48;1.38;;;22.10;32.60;;;;;;5044486;28;20139;-61
2021/11/30 01:38:51;;;;;;;1.60;1.50;;;22.10;32.60;;;;;;5043731;28;20152;-63
2021/11/30 01:41:19;;;;;;;2.30;1.77;;;22.10;32.60;;;;;;5041712;28;20075;-61
2021/11/30 01:43:47;;;;;;;1.55;1.27;;;22.10;32.60;;;;;;5052428;28;21092;-61
2021/11/30 01:46:29;;;;;;;1.75;1.65;;;22.00;32.60;;;;;;5063171;28;20562;-61
2021/11/30 01:49:14;;;;;;;1.58;1.30;;;22.10;32.60;;;;;;5063718;28;20079;-61
2021/11/30 01:51:42;;;;;;;2.58;1.98;;;22.10;32.60;;;;;;5052115;28;20056;-61
2021/11/30 01:54:09;;;;;;;1.48;1.38;;;22.00;32.60;;;;;;5042194;28;20044;-61
2021/11/30 01:56:36;;;;;;;2.65;1.67;;;22.00;32.60;;;;;;5042543;28;20159;-61
2021/11/30 01:59:04;;;;;;;2.13;1.65;;;22.00;32.60;;;;;;5044098;28;20061;-61
2021/11/30 02:01:32;;;;;;;1.50;1.30;;;22.00;32.60;;;;;;5044692;28;20109;-62
2021/11/30 02:03:59;;;;;;;1.13;1.02;;;22.00;32.60;;;;;;5061817;28;20079;-63
2021/11/30 02:06:27;;;;;;;1.50;1.35;;;22.00;32.60;;;;;;5064220;28;20519;-61
2021/11/30 02:08:54;;;;;;;1.45;1.35;;;22.00;32.60;;;;;;5064097;28;20136;-61
2021/11/30 02:11:22;;;;;;;1.45;1.35;;;22.00;32.60;;;;;;5059621;28;20153;-62
2021/11/30 02:13:49;;;;;;;1.85;1.52;;;22.00;32.60;;;;;;5041523;28;20052;-61
2021/11/30 02:16:19;;;;;;;1.55;1.40;;;22.00;32.60;;;;;;5043782;28;20576;-61
2021/11/30 02:18:47;;;;;;;;;;;22.00;32.60;;;;;;5044503;28;20055;-61
2021/11/30 02:21:17;;;;;;;1.88;1.65;;;22.00;32.60;;;;;;5040278;28;19928;-61
2021/11/30 02:23:51;;;;;;;1.65;1.30;;;22.00;32.60;;;;;;5043168;28;20052;-61
2021/11/30 02:26:18;;;;;;;1.92;1.75;;;22.00;32.60;;;;;;5043666;28;20048;-61
2021/11/30 02:28:49;;;;;;;1.50;1.40;;;22.00;32.60;;;;;;5044132;28;20588;-61
2021/11/30 02:31:20;;;;;;;1.55;1.45;;;22.00;32.60;;;;;;5041547;28;20102;-61
2021/11/30 02:33:48;;;;;;;1.55;1.45;;;22.00;32.60;;;;;;5039292;28;20110;-61
2021/11/30 02:36:24;;;;;;;1.52;1.42;;;22.00;32.50;;;;;;5043681;28;20079;-61
2021/11/30 02:38:54;;;;;;;1.40;1.30;;;22.00;32.50;;;;;;5041877;28;20064;-62
2021/11/30 02:41:23;;;;;;;1.75;1.40;;;22.00;32.50;;;;;;5041889;28;20091;-62
2021/11/30 02:43:50;;;;;;;1.40;1.30;;;22.00;32.50;;;;;;5038964;28;20052;-62
2021/11/30 02:46:40;;;;;;;1.45;1.33;;;22.00;32.50;;;;;;5043747;28;20079;-62
2021/11/30 02:49:12;;;;;;;1.25;1.15;;;22.00;32.50;;;;;;5044377;28;20056;-62
2021/11/30 02:51:42;;;;;;;1.10;1.00;;;22.00;32.50;;;;;;5042087;28;20060;-62
2021/11/30 02:54:12;;;;;;;1.95;1.58;;;22.00;32.50;;;;;;5061345;28;20055;-62
2021/11/30 02:56:41;;;;;;;;;;;22.00;32.40;;;;;;5067817;28;20473;-62
2021/11/30 02:59:08;;;;;;;1.33;1.10;;;22.00;32.40;;;;;;5066930;28;20022;-61
2021/11/30 03:01:37;;;;;;;1.30;1.20;;;22.00;32.40;;;;;;5056815;28;20044;-62
2021/11/30 03:04:14;;;;;;;1.50;1.30;;;22.00;32.50;;;;;;5042793;28;20060;-62
2021/11/30 03:06:42;;;;;;;1.95;1.55;;;22.00;32.50;;;;;;5046802;28;20498;-62
2021/11/30 03:09:10;;;;;;;1.33;1.23;;;21.90;32.40;;;;;;5046481;28;20091;-61
2021/11/30 03:11:38;;;;;;;1.35;1.25;;;21.90;32.40;;;;;;5047865;28;20109;-62
2021/11/30 03:14:05;;;;;;;1.83;1.70;;;21.90;32.40;;;;;;5044740;28;20914;-62
2021/11/30 03:16:33;;;;;;;1.10;1.10;;;21.90;32.40;;;;;;5046920;28;20553;-62
2021/11/30 03:19:03;;;;;;;1.30;1.20;;;21.90;32.40;;;;;;5046765;28;20566;-62
2021/11/30 03:21:30;;;;;;;2.00;1.52;;;21.90;32.40;;;;;;5043085;28;20065;-62
2021/11/30 03:23:58;;;;;;;1.58;1.30;;;21.90;32.40;;;;;;5064806;28;20048;-62
2021/11/30 03:26:26;;;;;;;1.77;1.45;;;21.90;32.40;;;;;;5062751;28;20790;-62
2021/11/30 03:28:54;;;;;;;1.38;1.23;;;21.90;32.40;;;;;;5066875;28;20098;-62
2021/11/30 03:32:02;;;;;;;1.30;1.20;;;21.90;32.40;;;;;;5062965;28;20056;-62
2021/11/30 03:34:13;;;;;;;1.77;1.50;;;21.90;32.40;;;;;;5043671;28;20484;-63
2021/11/30 03:36:42;;;;;;;1.20;1.10;;;21.90;32.40;;;;;;5046808;28;20139;-63
2021/11/30 03:39:12;;;;;;;1.30;1.20;;;21.90;32.40;;;;;;5046416;28;20105;-62
2021/11/30 03:41:39;;;;;;;;;;;21.90;32.40;;;;;;5042529;28;20744;-62
2021/11/30 03:44:07;;;;;;;1.08;1.00;;;21.90;32.40;;;;;;5064468;28;19967;-63
2021/11/30 03:46:35;;;;;;;1.30;1.20;;;21.90;32.40;;;;;;5066282;28;20093;-62
2021/11/30 03:49:04;;;;;;;0.77;0.77;;;21.90;32.40;;;;;;5067046;28;20052;-62
2021/11/30 03:51:32;;;;;;;1.77;1.38;;;21.90;32.50;;;;;;5057112;28;20079;-62
2021/11/30 03:54:01;;;;;;;1.05;0.95;;;21.90;32.40;;;;;;5053961;28;20066;-62
2021/11/30 03:56:28;;;;;;;1.00;1.00;;;21.90;32.40;;;;;;5066101;28;20148;-62
2021/11/30 03:58:59;;;;;;;1.20;1.10;;;21.90;32.40;;;;;;5064959;28;20052;-61
2021/11/30 04:01:26;;;;;;;1.33;1.23;;;21.80;32.30;;;;;;5061943;28;20501;-61
2021/11/30 04:03:55;;;;;;;1.35;1.25;;;21.80;32.30;;;;;;5041687;28;20052;-62
2021/11/30 04:06:23;;;;;;;1.30;1.30;;;21.80;32.40;;;;;;5051875;28;20056;-62
2021/11/30 04:08:51;;;;;;;1.20;1.10;;;21.80;32.30;;;;;;5044433;28;20105;-61
2021/11/30 04:11:21;;;;;;;0.98;0.98;;;21.80;32.40;;;;;;5042656;28;20086;-62
2021/11/30 04:13:49;;;;;;;1.42;1.33;;;21.80;32.40;;;;;;5045559;28;20090;-61
2021/11/30 04:16:16;;;;;;;0.93;0.93;;;21.80;32.40;;;;;;5045162;28;20216;-61
2021/11/30 04:18:44;;;;;;;1.27;1.10;;;21.80;32.40;;;;;;5041785;28;20049;-61
2021/11/30 04:21:12;;;;;;;1.20;1.10;;;21.80;32.40;;;;;;5024976;28;20550;-61
2021/11/30 04:23:39;;;;;;;1.02;1.02;;;21.80;32.40;;;;;;5060091;28;20048;-61
2021/11/30 04:26:07;;;;;;;1.02;1.00;;;21.80;32.30;;;;;;5065185;28;20095;-61
2021/11/30 04:28:34;;;;;;;1.25;1.15;;;21.80;32.30;;;;;;5065869;28;20056;-61
2021/11/30 04:31:01;;;;;;;1.02;1.02;;;21.80;32.30;;;;;;5062069;28;20048;-61
2021/11/30 04:33:29;;;;;;;1.27;1.17;;;21.80;32.30;;;;;;5038860;28;20076;-61
2021/11/30 04:35:56;;;;;;;1.38;1.27;;;21.80;32.30;;;;;;5025871;28;20049;-61
2021/11/30 04:38:23;;;;;;;1.00;1.00;;;21.80;32.30;;;;;;5039166;28;20048;-61
2021/11/30 04:40:51;;;;;;;1.40;1.30;;;21.80;32.30;;;;;;5024920;28;20084;-62
2021/11/30 04:43:20;;;;;;;0.93;0.90;;;21.80;32.30;;;;;;5031821;28;20494;-63
2021/11/30 04:45:54;;;;;;;1.27;1.17;;;21.80;32.20;;;;;;5044248;28;20056;-61
2021/11/30 04:48:23;;;;;;;1.08;1.05;;;21.80;32.20;;;;;;5030327;28;20049;-62
2021/11/30 04:50:53;;;;;;;1.23;1.05;;;21.80;32.10;;;;;;5040256;28;20063;-62
2021/11/30 04:53:21;;;;;;;0.98;0.90;;;21.80;32.20;;;;;;5034200;28;20146;-62
2021/11/30 04:55:51;;;;;;;1.27;1.17;;;21.80;32.10;;;;;;5037090;28;20498;-61
2021/11/30 04:58:19;;;;;;;1.30;1.20;;;21.80;32.10;;;;;;5031171;28;20107;-61
2021/11/30 05:00:48;;;;;;;1.30;1.20;;;21.80;32.10;;;;;;5033809;28;20135;-62
2021/11/30 05:03:16;;;;;;;1.60;1.50;;;21.80;32.10;;;;;;5035003;28;20052;-62
2021/11/30 05:05:44;;;;;;;1.90;1.10;;;21.80;32.10;;;;;;5039934;28;20048;-62
2021/11/30 05:08:11;;;;;;;1.20;1.13;;;21.80;32.10;;;;;;5024454;28;20122;-62
2021/11/30 05:10:39;;;;;;;1.10;1.10;;;21.70;32.10;;;;;;5019655;28;20053;-62
2021/11/30 05:13:06;;;;;;;1.40;1.30;;;21.70;32.60;;;;;;5034744;28;20409;-62
2021/11/30 05:15:34;;;;;;;1.10;1.00;;;21.70;32.10;;;;;;5021085;28;20060;-62
2021/11/30 05:18:01;;;;;;;1.20;1.00;;;21.70;32.10;;;;;;5036093;28;20052;-62
2021/11/30 05:20:28;;;;;;;1.38;1.27;;;21.70;32.00;;;;;;5037083;28;20506;-62
2021/11/30 05:22:55;;;;;;;1.33;1.20;;;21.70;32.00;;;;;;5032628;28;20128;-62
2021/11/30 05:25:24;;;;;;;0.82;0.82;;;21.70;32.10;;;;;;5036912;28;20053;-62
2021/11/30 05:27:51;;;;;;;1.50;0.93;;;21.70;32.00;;;;;;5039124;28;20136;-62
2021/11/30 05:30:20;;;;;;;1.23;1.13;;;21.70;32.00;;;;;;5021114;28;20052;-62
2021/11/30 05:32:49;;;;;;;1.23;1.10;;;21.70;32.00;;;;;;5033047;28;20084;-61
2021/11/30 05:35:17;;;;;;;1.27;1.20;;;21.70;32.00;;;;;;5018149;28;20088;-61
2021/11/30 05:37:44;;;;;;;1.25;1.15;;;21.70;32.00;;;;;;5018683;28;20049;-61
2021/11/30 05:40:12;;;;;;;2.05;1.63;;;21.70;32.00;;;;;;5018721;28;20139;-61
2021/11/30 05:42:39;;;;;;;1.30;1.20;;;21.70;32.00;;;;;;5033158;28;20449;-62
2021/11/30 05:45:07;;;;;;;1.67;1.58;;;21.70;32.00;;;;;;5025836;28;20480;-61
2021/11/30 05:47:34;;;;;;;1.58;1.20;;;21.70;31.90;;;;;;5019055;28;20986;-62
2021/11/30 05:50:01;;;;;;;1.55;1.10;;;21.70;32.00;;;;;;5022708;28;20048;-61
2021/11/30 05:52:28;;;;;;;1.45;1.27;;;21.70;32.00;;;;;;5033302;28;20620;-61
2021/11/30 05:54:55;;;;;;;1.60;1.48;;;21.70;31.90;;;;;;5020687;28;20510;-63
2021/11/30 05:57:23;;;;;;;1.92;1.23;;;21.70;32.00;;;;;;5019423;28;20072;-63
2021/11/30 05:59:51;;;;;;;1.30;1.20;;;21.70;32.10;;;;;;5025095;28;20279;-61
2021/11/30 06:02:20;;;;;;;1.38;1.27;;;21.70;32.00;;;;;;5021179;28;20094;-61
2021/11/30 06:04:48;;;;;;;2.70;2.45;;;21.70;32.00;;;;;;5027172;28;20049;-61
2021/11/30 06:07:15;;;;;;;2.10;1.73;;;21.60;31.90;;;;;;5024261;28;20461;-62
2021/11/30 06:09:42;;;;;;;2.70;1.92;;;21.60;31.90;;;;;;5027109;28;20051;-62
2021/11/30 06:12:10;;;;;;;3.85;2.22;;;21.60;31.90;;;;;;5021467;28;20804;-62
2021/11/30 06:14:38;;;;;;;3.50;2.40;;;21.60;32.00;;;;;;5020258;28;20123;-61
2021/11/30 06:17:06;;;;;;;3.67;2.33;;;21.60;32.00;;;;;;5016917;28;20176;-61
2021/11/30 06:19:37;;;;;;;4.00;2.50;;;21.60;31.90;;;;;;5024247;28;20107;-63
2021/11/30 06:22:08;;;;;;;2.72;2.13;;;21.60;31.90;;;;;;5025721;28;20421;-60
2021/11/30 06:24:35;;;;;;;2.88;2.35;;;21.70;32.10;;;;;;5025102;28;20139;-61
2021/11/30 06:27:02;;;;;;;3.75;2.85;;;21.70;32.00;;;;;;5030894;28;20072;-61
2021/11/30 06:29:29;;;;;;;3.53;2.53;;;21.80;31.90;;;;;;5033917;28;20044;-60
2021/11/30 06:31:56;;;;;;;4.75;3.10;;;21.80;31.80;;;;;;5024566;28;20052;-63
2021/11/30 06:34:23;;;;;;;4.35;2.88;;;21.90;32.30;;;;;;5027300;28;20049;-60
2021/11/30 06:36:51;;;;;;;4.63;3.22;;;22.00;32.10;;;;;;5026364;28;20051;-62
2021/11/30 06:39:18;;;;;;;4.05;3.20;;;22.00;32.60;;;;;;5030140;28;20048;-62
2021/11/30 06:41:45;;;;;;;3.65;2.95;;;22.10;32.10;;;;;;5020978;28;20081;-62
2021/11/30 06:44:12;;;;;;;3.92;3.50;;;22.20;31.90;;;;;;5022440;28;20547;-62
2021/11/30 06:46:39;;;;;;;7.85;3.30;;;22.20;32.00;;;;;;5021234;28;20711;-62
2021/11/30 06:49:08;;;;;;;7.05;3.97;;;22.30;32.10;;;;;;5021888;28;20051;-61
2021/11/30 06:51:35;;;;;;;5.65;4.10;;;22.40;31.90;;;;;;5021207;28;20060;-61
2021/11/30 06:54:02;;;;;;;4.78;4.05;;;22.40;31.90;;;;;;5021799;28;20053;-64
2021/11/30 06:56:30;;;;;;;6.45;4.72;;;22.50;31.70;;;;;;5026195;28;20052;-62
2021/11/30 06:58:57;;;;;;;7.75;4.60;;;22.60;31.60;;;;;;5024051;28;20680;-63
2021/11/30 07:01:27;;;;;;;6.88;4.85;;;22.70;31.80;;;;;;5020040;28;20063;-60
2021/11/30 07:03:54;;;;;;;11.27;5.25;;;22.70;31.60;;;;;;5024430;28;20072;-60
2021/11/30 07:06:38;;;;;;;5.28;4.35;;;22.80;31.50;;;;;;5018951;28;20052;-60
2021/11/30 07:09:19;;;;;;;4.72;4.18;;;22.80;31.20;;;;;;5029391;28;20049;-64
2021/11/30 07:14:34;;;;;;;9.73;4.85;;;23.00;31.50;;;;;;5025780;28;20044;-59
2021/11/30 07:17:01;;;;;;;6.93;4.70;;;23.10;31.50;;;;;;5027218;28;20082;-60
2021/11/30 07:19:31;;;;;;;6.03;4.60;;;23.20;31.50;;;;;;5028252;28;20425;-60
2021/11/30 07:21:58;;;;;;;6.80;4.50;;;23.30;31.30;;;;;;5020722;28;20056;-59
2021/11/30 07:24:26;;;;;;;7.18;4.85;;;23.30;31.40;;;;;;5024917;28;20769;-61
2021/11/30 07:26:53;;;;;;;7.72;4.70;;;23.40;31.40;;;;;;5024338;28;20577;-62
2021/11/30 07:29:38;;;;;;;6.93;4.68;;;23.50;31.40;;;;;;5032295;28;20106;-62
2021/11/30 07:32:06;;;;;;;11.25;4.90;;;23.60;31.40;;;;;;5020324;28;20048;-62
2021/11/30 07:34:34;;;;;;;7.60;4.43;;;23.60;31.00;;;;;;5026188;28;20455;-61
2021/11/30 07:37:01;;;;;;;8.38;4.80;;;23.70;30.70;;;;;;5025367;28;20134;-62
2021/11/30 07:39:28;;;;;;;6.60;4.15;;;23.80;31.00;;;;;;5030083;28;20052;-62
2021/11/30 07:41:56;;;;;;;6.93;4.53;;;23.80;30.90;;;;;;5018141;28;20429;-61
2021/11/30 07:44:23;;;;;;;5.97;4.05;;;23.90;30.90;;;;;;5025250;28;20053;-61
2021/11/30 07:46:51;;;;;;;7.03;4.03;;;23.90;30.90;;;;;;5020642;28;20710;-61
2021/11/30 07:49:20;;;;;;;5.93;3.78;;;24.00;30.80;;;;;;5027539;28;20118;-61
2021/11/30 07:51:47;;;;;;;5.75;4.55;;;24.10;30.80;;;;;;5027396;28;20056;-60
2021/11/30 07:54:14;;;;;;;7.75;4.43;;;24.10;30.70;;;;;;5024182;28;20130;-62
2021/11/30 07:56:42;;;;;;;8.80;3.97;;;24.20;30.80;;;;;;5024568;28;20053;-62
2021/11/30 07:59:09;;;;;;;5.57;4.43;;;24.30;30.60;;;;;;5028589;28;20102;-61
2021/11/30 08:01:36;;;;;;;5.78;4.28;;;24.30;30.30;;;;;;5021636;28;20080;-63
2021/11/30 08:04:03;;;;;;;4.75;3.53;;;24.40;30.30;;;;;;5022914;28;20449;-61
2021/11/30 08:06:30;;;;;;;8.00;4.07;;;24.50;30.20;;;;;;5028602;28;20076;-62
2021/11/30 08:08:58;;;;;;;7.40;4.03;;;24.50;30.10;;;;;;5027342;28;20094;-64
2021/11/30 08:11:25;;;;;;;5.07;4.13;;;24.60;30.20;;;;;;5019197;28;20052;-62
2021/11/30 08:13:53;;;;;;;7.00;4.03;;;24.60;30.00;;;;;;5020836;28;20098;-62
2021/11/30 08:16:22;;;;;;;4.82;3.00;;;24.70;30.00;;;;;;5033441;28;20401;-65
2021/11/30 08:18:52;;;;;;;5.00;3.13;;;24.80;30.00;;;;;;5024982;28;20573;-67
2021/11/30 08:21:19;;;;;;;6.20;4.35;;;24.80;29.90;;;;;;4989645;28;20129;-63
2021/11/30 08:23:46;;;;;;;3.75;3.35;;;24.90;30.10;;;;;;5024671;28;20122;-65
2021/11/30 08:26:15;;;;;;;5.85;3.53;;;24.90;30.00;;;;;;5026040;28;20084;-63
2021/11/30 08:28:42;;;;;;;7.13;4.53;;;24.90;30.00;;;;;;5030605;28;20064;-64
2021/11/30 08:31:09;;;;;;;3.92;3.22;;;24.90;29.90;;;;;;5021351;28;20056;-63
2021/11/30 08:33:36;;;;;;;3.85;3.33;;;24.90;30.00;;;;;;5018127;28;20075;-64
2021/11/30 08:36:03;;;;;;;4.90;3.20;;;24.80;29.90;;;;;;5025789;28;20056;-63
2021/11/30 08:38:31;;;;;;;7.60;4.00;;;24.80;29.90;;;;;;5029324;28;20468;-62
2021/11/30 08:40:59;;;;;;;5.05;3.17;;;24.80;30.30;;;;;;5019016;28;20048;-61
2021/11/30 08:43:27;;;;;;;5.82;3.35;;;24.80;29.90;;;;;;5017454;28;20094;-64
2021/11/30 08:45:55;;;;;;;4.70;3.55;;;24.70;29.90;;;;;;5035870;28;20535;-63
2021/11/30 08:48:24;;;;;;;3.72;3.35;;;24.70;29.90;;;;;;5029176;28;21799;-61
2021/11/30 08:50:57;;;;;;;4.13;3.00;;;24.70;29.90;;;;;;5023032;28;20234;-63
2021/11/30 08:53:25;;;;;;;4.50;3.63;;;24.70;29.90;;;;;;5017390;28;20075;-61
2021/11/30 08:55:52;;;;;;;6.35;3.58;;;24.60;29.80;;;;;;5017052;28;20052;-64
2021/11/30 08:58:19;;;;;;;3.47;3.10;;;24.60;29.80;;;;;;5029788;28;20044;-61
2021/11/30 09:00:48;;;;;;;5.60;2.83;;;24.60;29.80;;;;;;5029872;28;20103;-66
2021/11/30 09:03:15;;;;;;;4.40;3.40;;;24.60;29.80;;;;;;5020805;28;20052;-64
2021/11/30 09:05:43;;;;;;;5.88;3.28;;;24.50;29.70;;;;;;5030438;28;20102;-64
2021/11/30 09:08:11;;;;;;;3.97;2.97;;;24.50;29.70;;;;;;5023123;28;20136;-64
2021/11/30 09:10:40;;;;;;;4.25;3.45;;;24.50;29.80;;;;;;5025191;28;20049;-65
2021/11/30 09:13:07;;;;;;;9.10;3.63;;;24.50;29.80;;;;;;5015662;28;20110;-62
2021/11/30 09:15:37;;;;;;;3.50;3.20;;;24.50;29.80;;;;;;5027127;28;20088;-60
2021/11/30 09:18:04;;;;;;;7.20;3.67;;;24.50;29.80;;;;;;5022108;28;20061;-63
2021/11/30 09:20:32;;;;;;;4.75;3.45;;;24.50;29.60;;;;;;5024932;28;20498;-63
2021/11/30 09:23:00;;;;;;;7.00;3.42;;;24.50;29.50;;;;;;5012009;28;20053;-58
2021/11/30 09:25:28;;;;;;;4.22;3.33;;;24.50;29.50;;;;;;5024641;28;20114;-59
2021/11/30 09:27:57;;;;;;;4.72;3.05;;;24.40;29.40;;;;;;5027221;28;20391;-61
2021/11/30 09:30:25;;;;;;;5.30;3.50;;;24.40;29.40;;;;;;5023077;28;20550;-62
2021/11/30 09:32:53;;;;;;;6.70;3.42;;;24.40;29.40;;;;;;5015213;28;20049;-62
2021/11/30 09:35:22;;;;;;;4.50;3.08;;;24.40;29.40;;;;;;5022564;28;20700;-62
2021/11/30 09:37:51;;;;;;;3.53;3.08;;;24.40;29.60;;;;;;5024140;28;20135;-62
2021/11/30 09:40:23;;;;;;;4.78;3.33;;;24.40;29.60;;;;;;5027188;28;20051;-62
2021/11/30 09:43:10;;;;;;;8.20;3.30;;;24.40;29.70;;;;;;5013224;28;20052;-62
2021/11/30 09:45:39;;;;;;;4.15;3.42;;;24.40;29.70;;;;;;5023840;28;20052;-65
2021/11/30 09:48:11;;;;;;;3.47;2.70;;;24.40;29.70;;;;;;5026036;28;20075;-65
2021/11/30 09:50:43;;;;;;;3.60;3.03;;;24.40;29.70;;;;;;5026722;28;20550;-63
2021/11/30 09:53:11;;;;;;;4.65;3.03;;;24.40;29.70;;;;;;5017679;28;20052;-66
2021/11/30 09:55:39;;;;;;;4.43;3.13;;;24.40;29.70;;;;;;5020206;28;21426;-64
2021/11/30 09:58:07;;;;;;;5.40;3.40;;;24.50;29.90;;;;;;5022831;28;20460;-61
2021/11/30 10:00:36;;;;;;;4.30;2.72;;;24.50;29.90;;;;;;5020814;28;20126;-64
2021/11/30 10:03:06;;;;;;;4.18;2.50;;;24.50;29.90;;;;;;5014100;28;20055;-63
2021/11/30 10:05:35;;;;;;;5.50;3.08;;;24.50;29.90;;;;;;5021253;28;20106;-64
2021/11/30 10:08:02;;;;;;;5.35;2.40;;;24.50;29.80;;;;;;5024770;28;20080;-63
2021/11/30 10:10:35;;;;;;;6.18;2.80;;;24.50;29.80;;;;;;5023305;28;20071;-63
2021/11/30 10:13:12;;;;;;;3.22;2.70;;;24.50;29.80;;;;;;5018016;28;20489;-65
2021/11/30 10:16:01;;;;;;;4.78;3.10;;;24.50;29.70;;;;;;5027483;28;20061;-64
2021/11/30 10:18:35;;;;;;;4.30;2.78;;;24.50;29.80;;;;;;5026973;28;20052;-62
2021/11/30 10:21:22;;;;;;;7.18;2.50;;;24.50;29.80;;;;;;5023757;28;20094;-62
2021/11/30 10:23:55;;;;;;;4.43;2.88;;;24.50;30.00;;;;;;5016877;28;20501;-62
2021/11/30 10:26:30;;;;;;;4.18;2.67;;;24.50;30.20;;;;;;5029805;28;20578;-65
2021/11/30 10:29:04;;;;;;;3.42;2.63;;;24.50;30.20;;;;;;5029574;28;20091;-65
2021/11/30 10:31:36;;;;;;;5.75;2.88;;;24.50;30.40;;;;;;5020113;28;20140;-62
2021/11/30 10:34:24;;;;;;;3.25;2.35;;;24.50;30.50;;;;;;5017714;28;20102;-62
2021/11/30 10:37:08;;;;;;;4.13;2.75;;;24.50;30.50;;;;;;5026793;28;20613;-60
2021/11/30 10:39:38;;;;;;;6.85;2.78;;;24.50;30.50;;;;;;5020644;28;20087;-60
2021/11/30 10:42:25;;;;;;;4.72;3.05;;;24.50;30.30;;;;;;5019993;28;20066;-62
2021/11/30 10:44:57;;;;;;;4.43;2.80;;;24.50;30.10;;;;;;5023154;28;20053;-63
2021/11/30 10:47:27;;;;;;;2.90;2.45;;;24.50;30.00;;;;;;5026146;28;20110;-63
2021/11/30 10:49:57;;;;;;;4.82;3.20;;;24.50;29.90;;;;;;5029314;28;20103;-62
2021/11/30 10:52:31;;;;;;;2.78;2.17;;;24.50;29.90;;;;;;5015653;28;20056;-63
2021/11/30 10:55:13;;;;;;;2.42;2.22;;;24.50;29.80;;;;;;5022687;28;20084;-63
2021/11/30 10:57:41;;;;;;;2.58;2.20;;;24.50;29.70;;;;;;5022271;28;20517;-62
2021/11/30 11:00:24;;;;;;;5.30;2.25;;;24.40;29.70;;;;;;5027616;28;20059;-63
2021/11/30 11:03:02;;;;;;;3.35;2.85;;;24.40;29.60;;;;;;5012818;28;20088;-62
2021/11/30 11:05:38;;;;;;;3.40;2.63;;;24.40;29.50;;;;;;5028747;28;20049;-62
2021/11/30 11:08:16;;;;;;;4.10;2.53;;;24.50;29.60;;;;;;5025471;28;20122;-62
2021/11/30 11:10:47;;;;;;;4.10;2.75;;;24.40;29.50;;;;;;5028991;28;20084;-62
2021/11/30 11:13:20;;;;;;;3.10;2.60;;;24.40;29.50;;;;;;5018399;28;20141;-62
2021/11/30 11:15:49;;;;;;;4.22;2.88;;;24.40;29.40;;;;;;5029771;28;20110;-63
2021/11/30 11:18:26;;;;;;;2.67;2.42;;;24.40;29.30;;;;;;5026064;28;20091;-63
2021/11/30 11:21:25;;;;;;;2.72;2.15;;;24.40;29.30;;;;;;5029365;28;21329;-64
2021/11/30 11:24:14;;;;;;;6.63;2.30;;;24.40;29.20;;;;;;5028011;28;20143;-63
2021/11/30 11:26:51;;;;;;;2.97;2.30;;;24.40;29.10;;;;;;5029271;28;20052;-63
2021/11/30 11:29:20;;;;;;;2.63;2.20;;;24.40;29.00;;;;;;5030415;28;20057;-63
2021/11/30 11:31:54;;;;;;;2.53;2.30;;;24.40;29.00;;;;;;5027672;28;20056;-64
2021/11/30 11:34:26;;;;;;;3.05;2.75;;;24.40;29.00;;;;;;5022824;28;20059;-60
2021/11/30 11:36:55;;;;;;;1.92;1.80;;;24.40;28.50;;;;;;5030588;28;20444;-59
2021/11/30 11:39:24;;;;;;;3.10;2.17;;;24.40;28.60;;;;;;5034887;28;20049;-59
2021/11/30 11:41:54;;;;;;;3.22;2.65;;;24.40;28.40;;;;;;5028691;28;20084;-60
2021/11/30 11:44:22;;;;;;;3.92;3.15;;;24.40;28.00;;;;;;5026523;28;20106;-61
2021/11/30 11:46:58;;;;;;;4.15;2.70;;;24.40;28.30;;;;;;5027720;28;20113;-62
2021/11/30 11:49:27;;;;;;;3.88;2.53;;;24.40;28.50;;;;;;5031526;28;20052;-62
2021/11/30 11:51:56;;;;;;;4.68;2.63;;;24.40;28.70;;;;;;5020749;28;20157;-62
2021/11/30 11:54:29;;;;;;;4.55;2.28;;;24.40;28.80;;;;;;5024437;28;20129;-61
2021/11/30 11:56:59;;;;;;;3.50;2.45;;;24.50;28.80;;;;;;5030671;28;20049;-62
2021/11/30 11:59:36;;;;;;;4.45;2.53;;;24.50;28.70;;;;;;5029055;28;20547;-60
2021/11/30 12:02:19;;;;;;;2.63;2.42;;;24.50;28.70;;;;;;5017238;28;20141;-64
2021/11/30 12:04:58;;;;;;;3.03;2.60;;;24.60;28.70;;;;;;5025840;28;20045;-61
2021/11/30 12:07:28;;;;;;;5.68;2.78;;;24.60;28.70;;;;;;5025867;28;20053;-62
2021/11/30 12:10:17;;;;;;;3.50;2.40;;;24.70;28.60;;;;;;5026672;28;20048;-62
2021/11/30 12:13:18;;;;;;;2.97;2.65;;;24.70;28.50;;;;;;5014200;28;20091;-62
2021/11/30 12:16:04;;;;;;;3.20;2.60;;;24.70;28.50;;;;;;5027271;28;20151;-63
2021/11/30 12:18:35;;;;;;;4.32;2.80;;;24.70;28.40;;;;;;5027046;28;20992;-62
2021/11/30 12:21:25;;;;;;;3.05;2.40;;;24.70;28.40;;;;;;5021578;28;20076;-62
2021/11/30 12:23:58;;;;;;;3.17;2.20;;;24.70;28.40;;;;;;5022360;28;20705;-63
2021/11/30 12:26:44;;;;;;;4.00;2.10;;;24.70;28.30;;;;;;5020212;28;20045;-62
2021/11/30 12:29:33;;;;;;;2.28;2.05;;;24.70;28.30;;;;;;5038719;28;20045;-62
2021/11/30 12:32:15;;;;;;;3.25;2.45;;;24.70;28.80;;;;;;5019083;28;20041;-62
2021/11/30 12:34:45;;;;;;;2.63;2.40;;;24.70;28.90;;;;;;5032536;28;20665;-61
2021/11/30 12:37:25;;;;;;;2.38;2.17;;;24.70;28.90;;;;;;5026170;28;20045;-60
2021/11/30 12:40:12;;;;;;;3.73;2.17;;;24.80;28.90;;;;;;5030523;28;20080;-62
2021/11/30 12:43:10;;;;;;;3.05;2.55;;;24.80;28.90;;;;;;5022734;28;20120;-61
2021/11/30 12:45:48;;;;;;;2.75;2.55;;;24.80;28.90;;;;;;5029604;28;20856;-63
2021/11/30 12:48:37;;;;;;;3.63;2.03;;;24.80;28.90;;;;;;5034540;28;20391;-63
2021/11/30 12:51:26;;;;;;;6.05;2.30;;;24.80;28.90;;;;;;5024013;28;20168;-61
2021/11/30 12:53:56;;;;;;;2.97;2.70;;;24.80;28.90;;;;;;5023480;28;20485;-60
2021/11/30 12:56:44;;;;;;;;;;;24.80;29.00;;;;;;5025700;28;20106;-62
2021/11/30 12:59:13;;;;;;;4.95;2.95;;;24.80;28.80;;;;;;5027368;28;21029;-64
2021/11/30 13:01:41;;;;;;;3.42;2.90;;;24.80;28.80;;;;;;5025073;28;20048;-64
2021/11/30 13:04:31;;;;;;;4.00;3.00;;;24.80;28.70;;;;;;5018407;28;20060;-65
2021/11/30 13:07:07;;;;;;;4.70;2.28;;;24.80;28.50;;;;;;5025848;28;20056;-64
2021/11/30 13:09:46;;;;;;;5.10;3.30;;;24.90;28.50;;;;;;5029336;28;20193;-64
2021/11/30 13:12:18;;;;;;;7.10;2.40;;;24.90;28.50;;;;;;5017927;28;20052;-64